Time;durP1;ratioP1;P1;durP2;ratioP2;P2;SDS_P1;SDS_P2;PMS_P1;PMS_P2;Temp;Humidity;BMP_temperature;BMP_pressure;BME280_temperature;BME280_humidity;BME280_pressure;Samples;Min_cycle;Max_cycle;Signal;HPM_P1;HPM_P2
2021/03/10 00:00:11;;;;;;;20.40;18.60;;;5.20;99.90;;;;;;5076697;28;20462;-74
2021/03/10 00:02:37;;;;;;;20.10;18.60;;;5.10;99.90;;;;;;5076519;28;20473;-76
2021/03/10 00:05:06;;;;;;;19.90;18.50;;;5.10;99.90;;;;;;5071447;28;20493;-74
2021/03/10 00:07:33;;;;;;;19.50;18.10;;;5.00;99.90;;;;;;5076467;28;20484;-75
2021/03/10 00:10:00;;;;;;;19.30;17.83;;;5.00;99.90;;;;;;5069965;28;20552;-73
2021/03/10 00:12:26;;;;;;;19.20;17.90;;;5.00;99.90;;;;;;5073277;28;20570;-75
2021/03/10 00:14:53;;;;;;;18.97;17.60;;;4.90;99.90;;;;;;5075045;28;20485;-74
2021/03/10 00:17:20;;;;;;;19.80;18.40;;;4.80;99.90;;;;;;5072515;28;20972;-74
2021/03/10 00:19:46;;;;;;;20.40;18.80;;;4.80;99.90;;;;;;5076268;28;21067;-73
2021/03/10 00:22:15;;;;;;;20.10;18.73;;;4.80;99.90;;;;;;5079901;28;20459;-73
2021/03/10 00:24:41;;;;;;;19.73;18.33;;;4.80;99.90;;;;;;5080978;28;20462;-73
2021/03/10 00:27:09;;;;;;;20.30;18.90;;;4.80;99.90;;;;;;5073856;28;20459;-73
2021/03/10 00:29:35;;;;;;;19.73;18.17;;;4.80;99.90;;;;;;5075856;28;20466;-72
2021/03/10 00:32:02;;;;;;;20.27;18.63;;;4.80;99.90;;;;;;5074281;28;20466;-74
2021/03/10 00:34:28;;;;;;;18.97;17.67;;;4.80;99.90;;;;;;5076333;28;20547;-72
2021/03/10 00:36:55;;;;;;;20.50;18.90;;;4.70;99.90;;;;;;5080049;28;20463;-76
2021/03/10 00:39:23;;;;;;;19.43;18.13;;;4.70;99.90;;;;;;5073594;28;20557;-74
2021/03/10 00:41:49;;;;;;;19.17;17.57;;;4.60;99.90;;;;;;5079491;28;20458;-76
2021/03/10 00:44:16;;;;;;;20.97;19.37;;;4.60;99.90;;;;;;5081460;28;20505;-74
2021/03/10 00:46:43;;;;;;;21.20;19.40;;;4.40;99.90;;;;;;5076433;28;20458;-74
2021/03/10 00:49:10;;;;;;;21.97;20.23;;;4.40;99.90;;;;;;5076179;28;20458;-76
2021/03/10 00:51:36;;;;;;;19.70;18.20;;;4.40;99.90;;;;;;5083333;28;20467;-73
2021/03/10 00:54:02;;;;;;;21.30;19.60;;;4.40;99.90;;;;;;5072985;28;20491;-71
2021/03/10 00:56:30;;;;;;;21.03;19.30;;;4.30;99.90;;;;;;5079184;28;20964;-75
2021/03/10 00:58:58;;;;;;;22.40;20.10;;;4.30;99.90;;;;;;5078993;28;20454;-75
2021/03/10 01:01:24;;;;;;;22.60;20.67;;;4.20;99.90;;;;;;5070443;28;20505;-74
2021/03/10 01:03:51;;;;;;;22.97;20.70;;;4.20;99.90;;;;;;5074110;28;20463;-73
2021/03/10 01:06:23;;;;;;;22.90;20.80;;;4.10;99.90;;;;;;5080359;28;20489;-75
2021/03/10 01:08:49;;;;;;;19.60;18.00;;;4.00;99.90;;;;;;5079941;28;20642;-77
2021/03/10 01:11:16;;;;;;;18.93;17.63;;;4.00;99.90;;;;;;5076107;28;20451;-72
2021/03/10 01:13:44;;;;;;;20.20;18.47;;;3.80;99.90;;;;;;5076374;28;20872;-76
2021/03/10 01:16:10;;;;;;;21.03;19.30;;;3.80;99.90;;;;;;5070692;28;21028;-76
2021/03/10 01:18:37;;;;;;;19.93;18.43;;;3.90;99.90;;;;;;5067543;28;20827;-74
2021/03/10 01:21:05;;;;;;;22.40;20.03;;;4.00;99.90;;;;;;5074018;28;20502;-72
2021/03/10 01:23:31;;;;;;;20.53;18.73;;;4.00;99.90;;;;;;5078238;28;20467;-75
2021/03/10 01:25:58;;;;;;;21.50;19.70;;;4.20;99.90;;;;;;5078500;28;20463;-72
2021/03/10 01:28:25;;;;;;;20.00;18.20;;;4.20;99.90;;;;;;5074445;28;20752;-74
2021/03/10 01:30:53;;;;;;;20.47;18.60;;;4.30;99.90;;;;;;5075021;28;20475;-74
2021/03/10 01:33:21;;;;;;;20.57;19.17;;;4.30;99.90;;;;;;5071907;28;20497;-72
2021/03/10 01:35:48;;;;;;;19.57;18.00;;;4.30;99.90;;;;;;5076529;28;20530;-74
2021/03/10 01:38:15;;;;;;;20.93;19.27;;;4.30;99.90;;;;;;5077119;28;20553;-74
2021/03/10 01:40:41;;;;;;;20.20;18.63;;;4.30;99.90;;;;;;5075099;28;20515;-75
2021/03/10 01:43:08;;;;;;;20.10;18.60;;;4.30;99.90;;;;;;5071158;28;20470;-76
2021/03/10 01:45:36;;;;;;;20.57;19.07;;;4.30;99.90;;;;;;5075337;28;20831;-77
2021/03/10 01:48:07;;;;;;;19.93;18.00;;;4.40;99.90;;;;;;5069478;28;20481;-75
2021/03/10 01:50:33;;;;;;;19.50;18.00;;;4.50;99.90;;;;;;5076507;28;20459;-75
2021/03/10 01:53:04;;;;;;;20.07;18.47;;;4.50;99.90;;;;;;5080764;28;20478;-72
2021/03/10 01:55:32;;;;;;;20.10;18.50;;;4.60;99.90;;;;;;5071786;28;20953;-75
2021/03/10 01:57:58;;;;;;;19.80;18.20;;;4.60;99.90;;;;;;5064058;28;20574;-74
2021/03/10 02:00:28;;;;;;;21.17;19.47;;;4.60;99.90;;;;;;5079175;28;20555;-71
2021/03/10 02:02:55;;;;;;;21.13;19.27;;;4.70;99.90;;;;;;5074999;28;20470;-74
2021/03/10 02:05:24;;;;;;;22.10;20.10;;;4.70;99.90;;;;;;5072716;28;20451;-74
2021/03/10 02:08:02;;;;;;;22.37;20.37;;;4.70;99.90;;;;;;5076119;28;20481;-74
2021/03/10 02:10:48;;;;;;;22.40;20.40;;;4.80;99.90;;;;;;5078566;28;20450;-73
2021/03/10 02:13:19;;;;;;;22.73;20.63;;;4.70;99.90;;;;;;5070663;28;20493;-72
2021/03/10 02:15:53;;;;;;;22.57;20.67;;;4.70;99.90;;;;;;5081085;28;20474;-73
2021/03/10 02:18:25;;;;;;;24.00;21.07;;;4.70;99.90;;;;;;5073031;28;20864;-72
2021/03/10 02:20:56;;;;;;;26.60;22.27;;;4.70;99.90;;;;;;5076010;28;20470;-72
2021/03/10 02:23:42;;;;;;;23.63;21.57;;;4.70;99.90;;;;;;5071318;28;20999;-72
2021/03/10 02:26:30;;;;;;;24.80;22.40;;;4.60;99.90;;;;;;5074608;28;20485;-74
2021/03/10 02:29:02;;;;;;;24.70;22.50;;;4.50;99.90;;;;;;5074850;28;20455;-74
2021/03/10 02:31:31;;;;;;;26.40;23.60;;;4.40;99.90;;;;;;5072759;28;20547;-74
2021/03/10 02:34:00;;;;;;;25.80;23.00;;;4.40;99.90;;;;;;5070602;28;20498;-73
2021/03/10 02:36:29;;;;;;;26.80;24.20;;;4.40;99.90;;;;;;5077253;28;20458;-75
2021/03/10 02:39:00;;;;;;;26.60;24.00;;;4.40;99.90;;;;;;5076054;28;20470;-73
2021/03/10 02:41:31;;;;;;;25.17;22.60;;;4.40;99.90;;;;;;5078711;28;20581;-75
2021/03/10 02:44:02;;;;;;;27.20;24.33;;;4.40;99.90;;;;;;5076398;28;20470;-71
2021/03/10 02:46:29;;;;;;;28.90;25.23;;;4.30;99.90;;;;;;5066994;28;20461;-74
2021/03/10 02:48:56;;;;;;;26.53;23.83;;;4.10;99.90;;;;;;5083250;28;20490;-73
2021/03/10 02:51:25;;;;;;;25.93;23.23;;;3.90;99.90;;;;;;5077751;28;21776;-77
2021/03/10 02:53:54;;;;;;;26.83;23.93;;;3.80;99.90;;;;;;5073652;28;20487;-72
2021/03/10 02:56:21;;;;;;;28.57;25.77;;;3.70;99.90;;;;;;5082476;28;20549;-77
2021/03/10 02:58:48;;;;;;;29.70;26.80;;;3.70;99.90;;;;;;5080655;28;20472;-74
2021/03/10 03:01:16;;;;;;;34.53;30.30;;;3.70;99.90;;;;;;5074882;28;20459;-72
2021/03/10 03:03:43;;;;;;;32.10;27.57;;;3.60;99.90;;;;;;5073182;28;20543;-72
2021/03/10 03:06:10;;;;;;;30.47;27.37;;;3.60;99.90;;;;;;5076154;28;20493;-73
2021/03/10 03:08:36;;;;;;;34.67;27.00;;;3.60;99.90;;;;;;5084447;28;20462;-73
2021/03/10 03:11:04;;;;;;;29.43;26.47;;;3.50;99.90;;;;;;5078673;28;20465;-72
2021/03/10 03:13:32;;;;;;;31.20;28.00;;;3.50;99.90;;;;;;5083582;28;20548;-73
2021/03/10 03:16:00;;;;;;;37.10;29.23;;;3.40;99.90;;;;;;5075734;28;20467;-76
2021/03/10 03:18:28;;;;;;;31.63;28.17;;;3.40;99.90;;;;;;5077948;28;20549;-74
2021/03/10 03:20:56;;;;;;;32.97;29.33;;;3.50;99.90;;;;;;5077771;28;20550;-72
2021/03/10 03:23:24;;;;;;;34.03;27.57;;;3.50;99.90;;;;;;5074250;28;20497;-74
2021/03/10 03:25:51;;;;;;;37.90;29.77;;;3.40;99.90;;;;;;5074107;28;20469;-72
2021/03/10 03:28:20;;;;;;;35.17;28.90;;;3.40;99.90;;;;;;5075738;28;20571;-73
2021/03/10 03:30:49;;;;;;;32.97;28.77;;;3.40;99.90;;;;;;5074072;28;20459;-72
2021/03/10 03:33:17;;;;;;;39.80;28.70;;;3.50;99.90;;;;;;5081795;28;20586;-72
2021/03/10 03:35:46;;;;;;;39.30;31.33;;;3.50;99.90;;;;;;5075604;28;20463;-72
2021/03/10 03:38:14;;;;;;;34.57;29.50;;;3.40;99.90;;;;;;5077038;28;20620;-72
2021/03/10 03:40:42;;;;;;;44.73;30.60;;;3.30;99.90;;;;;;5078154;28;20527;-75
2021/03/10 03:43:11;;;;;;;33.97;29.50;;;3.30;99.90;;;;;;5078292;28;20458;-72
2021/03/10 03:45:38;;;;;;;38.93;30.50;;;3.20;99.90;;;;;;5084224;28;20500;-72
2021/03/10 03:48:06;;;;;;;35.67;30.70;;;3.20;99.90;;;;;;5072382;28;20509;-71
2021/03/10 03:50:34;;;;;;;40.97;31.43;;;3.30;99.90;;;;;;5076507;28;20957;-75
2021/03/10 03:53:02;;;;;;;47.03;30.70;;;3.40;99.90;;;;;;5076616;28;20475;-75
2021/03/10 03:55:28;;;;;;;41.37;32.90;;;3.50;99.90;;;;;;5075768;28;20929;-74
2021/03/10 03:57:54;;;;;;;39.37;32.20;;;3.50;99.90;;;;;;5077439;28;20466;-74
2021/03/10 04:00:25;;;;;;;37.67;30.83;;;3.60;99.90;;;;;;5073309;28;20462;-73
2021/03/10 04:02:52;;;;;;;41.03;32.13;;;3.70;99.90;;;;;;5062009;28;20520;-71
2021/03/10 04:05:21;;;;;;;42.40;32.67;;;3.80;99.90;;;;;;5072036;28;20471;-74
2021/03/10 04:07:49;;;;;;;38.60;31.47;;;3.90;99.90;;;;;;5077204;28;20493;-74
2021/03/10 04:10:17;;;;;;;43.33;31.80;;;3.90;99.90;;;;;;5074130;28;20820;-74
2021/03/10 04:12:44;;;;;;;43.73;33.20;;;4.00;99.90;;;;;;5078705;28;20463;-71
2021/03/10 04:15:14;;;;;;;38.90;32.30;;;4.10;99.90;;;;;;5078562;28;20870;-74
2021/03/10 04:17:41;;;;;;;38.10;33.20;;;4.20;99.90;;;;;;5076132;28;20465;-71
2021/03/10 04:20:11;;;;;;;41.27;32.10;;;4.20;99.90;;;;;;5070800;28;20743;-71
2021/03/10 04:22:39;;;;;;;42.30;31.83;;;4.10;99.90;;;;;;5081597;28;20494;-73
2021/03/10 04:25:07;;;;;;;43.20;34.77;;;4.20;99.90;;;;;;5080041;28;20550;-72
2021/03/10 04:27:36;;;;;;;40.67;32.97;;;4.10;99.90;;;;;;5078515;28;20528;-73
2021/03/10 04:30:04;;;;;;;45.13;34.23;;;4.00;99.90;;;;;;5076394;28;20462;-71
2021/03/10 04:32:31;;;;;;;40.60;32.73;;;4.00;99.90;;;;;;5073610;28;20474;-73
2021/03/10 04:34:57;;;;;;;46.17;34.20;;;4.00;99.90;;;;;;5076191;28;20455;-76
2021/03/10 04:37:23;;;;;;;47.90;33.03;;;4.00;99.90;;;;;;5077390;28;20470;-72
2021/03/10 04:39:52;;;;;;;46.93;34.40;;;4.00;99.90;;;;;;5075890;28;20484;-75
2021/03/10 04:42:19;;;;;;;46.00;33.03;;;4.00;99.90;;;;;;5083931;28;20455;-73
2021/03/10 04:44:46;;;;;;;47.50;35.30;;;4.10;99.90;;;;;;5072266;28;20470;-76
2021/03/10 04:47:12;;;;;;;42.23;32.67;;;4.10;99.90;;;;;;5075126;28;20460;-77
2021/03/10 04:49:39;;;;;;;54.97;33.47;;;4.10;99.90;;;;;;5074045;28;20459;-73
2021/03/10 04:52:06;;;;;;;47.60;33.07;;;4.20;99.90;;;;;;5077706;28;20474;-76
2021/03/10 04:54:33;;;;;;;48.60;34.17;;;4.30;99.90;;;;;;5068659;28;20508;-75
2021/03/10 04:56:59;;;;;;;52.13;38.77;;;4.30;99.90;;;;;;5084178;28;20968;-73
2021/03/10 04:59:26;;;;;;;50.63;38.43;;;4.20;99.90;;;;;;5082738;28;20454;-75
2021/03/10 05:01:53;;;;;;;47.43;34.63;;;4.20;99.90;;;;;;5073552;28;20836;-75
2021/03/10 05:04:20;;;;;;;51.63;37.27;;;4.30;99.90;;;;;;5074377;28;20466;-73
2021/03/10 05:06:46;;;;;;;51.20;37.43;;;4.30;99.90;;;;;;5073055;28;20514;-72
2021/03/10 05:09:12;;;;;;;57.93;38.70;;;4.30;99.90;;;;;;5078695;28;20450;-75
2021/03/10 05:11:39;;;;;;;51.43;37.50;;;4.30;99.90;;;;;;5079588;28;20459;-72
2021/03/10 05:14:05;;;;;;;49.77;36.30;;;4.30;99.90;;;;;;5072304;28;20541;-73
2021/03/10 05:16:32;;;;;;;53.00;38.90;;;4.30;99.90;;;;;;5079544;28;20514;-73
2021/03/10 05:19:00;;;;;;;56.60;38.27;;;4.40;99.90;;;;;;5079510;28;20465;-75
2021/03/10 05:21:26;;;;;;;62.53;39.30;;;4.40;99.90;;;;;;5066285;28;20462;-74
2021/03/10 05:23:52;;;;;;;62.30;40.30;;;4.40;99.90;;;;;;5079025;28;20467;-73
2021/03/10 05:26:19;;;;;;;55.40;37.53;;;4.40;99.90;;;;;;5080767;28;20545;-76
2021/03/10 05:28:45;;;;;;;61.70;39.20;;;4.40;99.90;;;;;;5075994;28;20852;-72
2021/03/10 05:31:12;;;;;;;61.40;39.03;;;4.40;99.90;;;;;;5075255;28;20464;-76
2021/03/10 05:33:38;;;;;;;61.63;40.10;;;4.50;99.90;;;;;;5070884;28;20491;-75
2021/03/10 05:36:07;;;;;;;60.50;40.80;;;4.50;99.90;;;;;;5079309;28;20961;-75
2021/03/10 05:38:33;;;;;;;62.73;39.63;;;4.40;99.90;;;;;;5080609;28;20469;-75
2021/03/10 05:41:00;;;;;;;63.50;40.33;;;4.50;99.90;;;;;;5075126;28;20466;-72
2021/03/10 05:43:27;;;;;;;67.83;41.67;;;4.60;99.90;;;;;;5074162;28;20961;-76
2021/03/10 05:45:53;;;;;;;67.90;42.60;;;4.50;99.90;;;;;;5076945;28;20836;-73
2021/03/10 05:48:20;;;;;;;54.33;39.20;;;4.50;99.90;;;;;;5071872;28;20856;-74
2021/03/10 05:50:46;;;;;;;67.50;41.27;;;4.50;99.90;;;;;;5070566;28;20471;-74
2021/03/10 05:53:33;;;;;;;68.73;45.20;;;4.60;99.90;;;;;;5075082;28;20494;-74
2021/03/10 05:56:00;;;;;;;77.27;45.40;;;4.70;99.90;;;;;;5077942;28;20541;-75
2021/03/10 05:58:28;;;;;;;68.03;41.53;;;4.70;99.90;;;;;;5073840;28;20964;-74
2021/03/10 06:00:54;;;;;;;80.60;44.87;;;4.60;99.90;;;;;;5079995;28;20893;-76
2021/03/10 06:03:20;;;;;;;79.00;44.30;;;4.70;99.90;;;;;;5069362;28;20466;-73
2021/03/10 06:05:57;;;;;;;69.27;40.80;;;4.60;99.90;;;;;;5074265;28;20473;-75
2021/03/10 06:08:28;;;;;;;68.83;41.70;;;4.60;99.90;;;;;;5074432;28;20639;-74
2021/03/10 06:10:54;;;;;;;63.87;40.93;;;4.60;99.90;;;;;;5074561;28;20493;-73
2021/03/10 06:13:22;;;;;;;59.93;40.90;;;4.60;99.90;;;;;;5069384;28;20992;-75
2021/03/10 06:15:51;;;;;;;68.70;42.13;;;4.60;99.90;;;;;;5070453;28;20454;-77
2021/03/10 06:18:23;;;;;;;66.17;42.33;;;4.60;99.90;;;;;;5079910;28;20552;-71
2021/03/10 06:20:50;;;;;;;58.50;40.80;;;4.60;99.90;;;;;;5084676;28;21063;-75
2021/03/10 06:23:17;;;;;;;72.90;43.70;;;4.70;99.90;;;;;;5075826;28;20466;-73
2021/03/10 06:25:44;;;;;;;69.53;40.97;;;4.70;99.90;;;;;;5079571;28;20455;-75
2021/03/10 06:28:11;;;;;;;66.10;40.30;;;4.70;99.90;;;;;;5079355;28;20461;-74
2021/03/10 06:30:41;;;;;;;75.90;40.90;;;4.80;99.90;;;;;;5074603;28;20471;-77
2021/03/10 06:33:09;;;;;;;69.37;41.23;;;4.80;99.90;;;;;;5077004;28;20544;-75
2021/03/10 06:35:37;;;;;;;66.40;40.40;;;4.80;99.90;;;;;;5083405;28;20540;-72
2021/03/10 06:38:11;;;;;;;64.97;43.17;;;4.80;99.90;;;;;;5084189;28;20924;-75
2021/03/10 06:40:52;;;;;;;68.60;44.57;;;4.80;99.90;;;;;;5077322;28;20536;-76
2021/03/10 06:43:20;;;;;;;68.20;45.60;;;4.90;99.90;;;;;;5076354;28;21212;-74
2021/03/10 06:45:49;;;;;;;71.63;44.67;;;4.80;99.90;;;;;;5083054;28;20463;-77
2021/03/10 06:48:17;;;;;;;65.00;43.70;;;4.80;99.90;;;;;;5077114;28;20570;-77
2021/03/10 06:50:43;;;;;;;89.60;45.20;;;4.80;99.90;;;;;;5074980;28;20552;-75
2021/03/10 06:53:10;;;;;;;79.17;46.43;;;4.90;99.90;;;;;;5080627;28;20932;-74
2021/03/10 06:55:45;;;;;;;73.37;43.20;;;5.00;99.90;;;;;;5077776;28;20454;-76
2021/03/10 06:58:22;;;;;;;78.60;45.07;;;5.00;99.90;;;;;;5071044;28;20492;-77
2021/03/10 07:00:59;;;;;;;70.07;44.40;;;5.00;99.90;;;;;;5069746;28;20473;-75
2021/03/10 07:03:26;;;;;;;75.23;44.57;;;5.10;99.90;;;;;;5070416;28;20538;-74
2021/03/10 07:05:55;;;;;;;83.50;44.30;;;5.10;99.90;;;;;;5069522;28;20484;-77
2021/03/10 07:08:23;;;;;;;83.47;46.57;;;5.20;99.90;;;;;;5083904;28;20654;-73
2021/03/10 07:10:50;;;;;;;74.30;46.30;;;5.30;99.90;;;;;;5077933;28;20553;-75
2021/03/10 07:13:18;;;;;;;76.57;46.40;;;5.40;99.90;;;;;;5082400;28;20534;-74
2021/03/10 07:15:45;;;;;;;78.00;46.90;;;5.40;99.90;;;;;;5076516;28;20904;-74
2021/03/10 07:18:13;;;;;;;81.63;47.93;;;5.40;99.90;;;;;;5074415;28;20808;-77
2021/03/10 07:20:44;;;;;;;80.37;47.63;;;5.50;99.90;;;;;;5080402;28;20463;-76
2021/03/10 07:23:13;;;;;;;74.87;47.83;;;5.50;99.90;;;;;;5074265;28;20470;-77
2021/03/10 07:25:43;;;;;;;80.70;47.10;;;5.60;99.90;;;;;;5072697;28;20459;-77
2021/03/10 07:28:15;;;;;;;79.00;49.33;;;5.60;99.90;;;;;;5076523;28;20865;-74
2021/03/10 07:30:45;;;;;;;83.70;48.37;;;5.60;99.90;;;;;;5070806;28;20455;-77
2021/03/10 07:33:13;;;;;;;82.80;48.80;;;5.70;99.90;;;;;;5074871;28;20485;-74
2021/03/10 07:35:52;;;;;;;79.70;49.03;;;5.70;99.90;;;;;;5074947;28;20489;-74
2021/03/10 07:38:22;;;;;;;83.73;46.63;;;5.80;99.90;;;;;;5070316;28;20459;-78
2021/03/10 07:40:57;;;;;;;94.07;48.93;;;5.70;99.90;;;;;;5067596;28;20459;-74
2021/03/10 07:43:36;;;;;;;77.50;47.30;;;5.80;99.90;;;;;;5071672;28;20819;-76
2021/03/10 07:46:03;;;;;;;84.87;48.07;;;5.80;99.90;;;;;;5068394;28;20467;-75
2021/03/10 07:48:34;;;;;;;83.40;48.70;;;5.90;99.90;;;;;;5075698;28;20545;-73
2021/03/10 07:51:02;;;;;;;76.27;50.20;;;6.00;99.90;;;;;;5080961;28;20504;-76
2021/03/10 07:53:36;;;;;;;95.17;53.30;;;6.20;99.90;;;;;;5069177;28;20487;-76
2021/03/10 07:56:02;;;;;;;89.87;50.23;;;6.10;99.90;;;;;;5073797;28;20506;-74
2021/03/10 07:58:30;;;;;;;83.53;48.87;;;6.20;99.90;;;;;;5071301;28;20514;-76
2021/03/10 08:00:57;;;;;;;91.17;50.03;;;6.30;99.90;;;;;;5069256;28;20470;-74
2021/03/10 08:03:29;;;;;;;87.47;54.03;;;6.40;99.90;;;;;;5078116;28;20476;-78
2021/03/10 08:06:03;;;;;;;80.40;48.20;;;6.50;99.90;;;;;;5068678;28;20891;-78
2021/03/10 08:08:35;;;;;;;85.80;54.90;;;6.60;99.90;;;;;;5073986;28;20829;-78
2021/03/10 08:11:10;;;;;;;76.77;50.80;;;6.60;99.90;;;;;;5070143;28;20454;-75
2021/03/10 08:13:36;;;;;;;82.77;49.80;;;6.60;99.90;;;;;;5067648;28;20496;-73
2021/03/10 08:16:05;;;;;;;81.30;51.03;;;6.70;99.90;;;;;;5080140;28;21023;-78
2021/03/10 08:18:33;;;;;;;76.30;49.73;;;6.80;99.90;;;;;;5079682;28;20913;-78
2021/03/10 08:21:08;;;;;;;76.83;47.50;;;6.90;99.90;;;;;;5078470;28;20573;-74
2021/03/10 08:23:35;;;;;;;75.80;47.50;;;7.00;99.90;;;;;;5077735;28;20468;-77
2021/03/10 08:26:03;;;;;;;79.83;49.00;;;7.10;99.90;;;;;;5075408;28;20598;-74
2021/03/10 08:28:34;;;;;;;75.73;49.10;;;7.20;99.90;;;;;;5068336;28;20485;-74
2021/03/10 08:31:02;;;;;;;71.50;49.43;;;7.20;99.90;;;;;;5053520;28;20925;-75
2021/03/10 08:33:29;;;;;;;84.23;49.00;;;7.40;99.90;;;;;;5058284;28;21054;-77
2021/03/10 08:35:56;;;;;;;79.47;47.10;;;7.40;99.90;;;;;;5051518;28;20471;-75
2021/03/10 08:38:23;;;;;;;72.87;46.70;;;7.50;99.90;;;;;;5053665;28;20987;-75
2021/03/10 08:40:49;;;;;;;79.53;46.47;;;7.50;99.90;;;;;;5060466;28;20523;-74
2021/03/10 08:43:18;;;;;;;90.80;48.40;;;7.60;99.90;;;;;;5073487;28;20982;-75
2021/03/10 08:45:45;;;;;;;72.83;47.10;;;7.40;99.90;;;;;;5065594;28;20458;-78
2021/03/10 08:48:14;;;;;;;75.40;48.50;;;7.50;99.90;;;;;;5061572;28;20474;-74
2021/03/10 08:50:42;;;;;;;66.50;44.20;;;7.70;99.90;;;;;;5064421;28;20484;-74
2021/03/10 08:53:13;;;;;;;72.00;48.07;;;7.90;99.90;;;;;;5062214;28;20641;-74
2021/03/10 08:55:40;;;;;;;61.27;44.20;;;8.00;99.90;;;;;;5061383;28;20458;-76
2021/03/10 08:58:12;;;;;;;67.93;45.23;;;8.00;99.90;;;;;;5063414;28;20486;-75
2021/03/10 09:00:40;;;;;;;57.47;42.93;;;8.40;99.90;;;;;;5059200;28;20931;-77
2021/03/10 09:03:11;;;;;;;60.00;42.93;;;8.60;99.90;;;;;;5059511;28;20546;-79
2021/03/10 09:05:38;;;;;;;58.50;43.43;;;8.70;99.90;;;;;;5064865;28;20466;-78
2021/03/10 09:08:07;;;;;;;59.60;43.50;;;8.80;99.90;;;;;;5070660;28;20581;-73
2021/03/10 09:10:36;;;;;;;50.90;41.07;;;9.00;99.90;;;;;;5058128;28;20557;-75
2021/03/10 09:13:03;;;;;;;53.80;41.70;;;9.20;99.90;;;;;;5060107;28;20531;-75
2021/03/10 09:15:31;;;;;;;50.10;38.80;;;9.30;99.90;;;;;;5063803;28;20516;-74
2021/03/10 09:18:03;;;;;;;52.73;40.07;;;9.20;99.90;;;;;;5055314;28;20543;-77
2021/03/10 09:20:31;;;;;;;47.87;39.37;;;9.40;99.90;;;;;;5058461;28;20470;-75
2021/03/10 09:22:59;;;;;;;45.33;36.37;;;9.50;99.90;;;;;;5060840;28;20465;-77
2021/03/10 09:25:28;;;;;;;44.17;38.27;;;9.70;99.90;;;;;;5058348;28;21011;-76
2021/03/10 09:28:07;;;;;;;45.93;37.67;;;9.70;99.90;;;;;;5058097;28;20898;-77
2021/03/10 09:30:34;;;;;;;51.40;38.70;;;9.60;99.90;;;;;;5060064;28;20466;-78
2021/03/10 09:33:02;;;;;;;51.77;38.40;;;9.70;99.90;;;;;;5056562;28;20458;-74
2021/03/10 09:35:31;;;;;;;43.60;35.27;;;10.00;99.90;;;;;;5062738;28;20957;-74
2021/03/10 09:38:02;;;;;;;47.33;35.87;;;10.00;99.90;;;;;;5062769;28;20461;-74
2021/03/10 09:40:39;;;;;;;45.43;38.30;;;10.00;99.90;;;;;;5067467;28;20453;-74
2021/03/10 09:43:08;;;;;;;41.40;36.90;;;10.10;99.90;;;;;;5069639;28;20459;-79
2021/03/10 09:45:36;;;;;;;44.50;38.17;;;10.30;99.90;;;;;;5066951;28;20470;-77
2021/03/10 09:48:05;;;;;;;41.13;35.50;;;10.40;99.90;;;;;;5062014;28;20473;-74
2021/03/10 09:50:33;;;;;;;49.17;34.47;;;10.40;99.90;;;;;;5066234;28;20828;-74
2021/03/10 09:53:11;;;;;;;44.40;34.97;;;10.50;99.90;;;;;;5074902;28;20820;-74
2021/03/10 09:55:37;;;;;;;37.50;33.00;;;10.40;99.90;;;;;;5072498;28;20464;-78
2021/03/10 09:58:05;;;;;;;36.90;33.03;;;10.60;99.90;;;;;;5070400;28;20810;-74
2021/03/10 10:00:32;;;;;;;36.73;32.93;;;10.60;99.90;;;;;;5065330;28;20965;-77
2021/03/10 10:02:59;;;;;;;36.13;32.23;;;10.70;99.90;;;;;;5070188;28;21032;-74
2021/03/10 10:05:27;;;;;;;36.10;32.23;;;10.90;99.90;;;;;;5071916;28;20473;-74
2021/03/10 10:07:55;;;;;;;35.53;31.63;;;11.00;99.90;;;;;;5063992;28;20834;-75
2021/03/10 10:10:21;;;;;;;34.43;30.60;;;11.10;99.90;;;;;;5067782;28;20486;-73
2021/03/10 10:12:49;;;;;;;34.70;31.27;;;11.30;99.90;;;;;;5066434;28;20969;-74
2021/03/10 10:15:18;;;;;;;33.23;29.93;;;11.50;99.90;;;;;;5068867;28;20506;-74
2021/03/10 10:17:48;;;;;;;33.70;30.40;;;11.50;99.90;;;;;;5068567;28;20973;-75
2021/03/10 10:20:16;;;;;;;32.00;28.57;;;11.60;99.90;;;;;;5069316;28;20465;-74
2021/03/10 10:22:44;;;;;;;29.90;26.93;;;11.80;99.90;;;;;;5069796;28;20470;-73
2021/03/10 10:25:12;;;;;;;30.20;27.40;;;12.00;99.90;;;;;;5070632;28;20455;-75
2021/03/10 10:27:39;;;;;;;29.33;26.53;;;12.00;99.90;;;;;;5068692;28;20485;-74
2021/03/10 10:30:06;;;;;;;30.93;28.03;;;11.90;99.90;;;;;;5059382;28;20470;-74
2021/03/10 10:32:33;;;;;;;29.30;26.17;;;11.90;99.90;;;;;;5065418;28;21006;-74
2021/03/10 10:35:00;;;;;;;29.43;26.33;;;12.00;99.90;;;;;;5056871;28;20709;-76
2021/03/10 10:37:27;;;;;;;28.03;25.37;;;12.00;99.90;;;;;;5057237;28;20914;-74
2021/03/10 10:39:53;;;;;;;29.27;26.57;;;12.00;99.90;;;;;;5057715;28;20462;-74
2021/03/10 10:42:20;;;;;;;28.70;25.93;;;12.00;99.90;;;;;;5055821;28;20523;-73
2021/03/10 10:44:46;;;;;;;28.10;25.50;;;12.20;99.90;;;;;;5053994;28;20464;-74
2021/03/10 10:47:13;;;;;;;26.83;24.13;;;12.30;99.90;;;;;;5057477;28;20497;-74
2021/03/10 10:49:39;;;;;;;26.47;24.27;;;12.40;99.90;;;;;;5053913;28;21119;-74
2021/03/10 10:52:06;;;;;;;26.40;24.10;;;12.70;99.90;;;;;;5055265;28;21000;-73
2021/03/10 10:54:33;;;;;;;25.40;23.37;;;12.80;99.90;;;;;;5059153;28;20997;-74
2021/03/10 10:56:59;;;;;;;25.47;23.30;;;13.00;99.90;;;;;;5058386;28;20973;-74
2021/03/10 10:59:26;;;;;;;26.03;23.57;;;13.00;99.90;;;;;;5069956;28;20466;-74
2021/03/10 11:01:52;;;;;;;24.83;22.67;;;13.10;99.90;;;;;;5066158;28;20471;-74
2021/03/10 11:04:19;;;;;;;23.30;21.33;;;13.30;99.90;;;;;;5070009;28;21174;-74
2021/03/10 11:06:45;;;;;;;25.07;22.97;;;13.00;99.90;;;;;;5065600;28;20482;-73
2021/03/10 11:09:12;;;;;;;25.50;23.20;;;13.00;99.90;;;;;;5060798;28;20467;-73
2021/03/10 11:11:39;;;;;;;23.70;21.90;;;13.10;99.90;;;;;;5055191;28;20528;-75
2021/03/10 11:14:06;;;;;;;24.67;22.57;;;13.10;99.90;;;;;;5058011;28;20506;-75
2021/03/10 11:16:33;;;;;;;24.93;22.67;;;13.20;99.90;;;;;;5055088;28;21267;-76
2021/03/10 11:18:59;;;;;;;23.03;21.00;;;13.30;99.90;;;;;;5055845;28;20462;-75
2021/03/10 11:21:26;;;;;;;22.50;20.60;;;13.40;99.90;;;;;;5055611;28;20508;-76
2021/03/10 11:23:53;;;;;;;22.37;20.40;;;13.30;99.90;;;;;;5064140;28;20471;-75
2021/03/10 11:26:20;;;;;;;23.20;21.30;;;13.00;99.90;;;;;;5059817;28;20463;-73
2021/03/10 11:28:46;;;;;;;22.57;20.90;;;12.90;99.90;;;;;;5064020;28;20462;-73
2021/03/10 11:31:13;;;;;;;22.30;20.60;;;12.70;99.90;;;;;;5063210;28;20566;-73
2021/03/10 11:33:39;;;;;;;23.23;21.07;;;12.90;99.90;;;;;;5059490;28;20483;-74
2021/03/10 11:36:07;;;;;;;23.43;21.17;;;13.20;99.90;;;;;;5067160;28;20497;-75
2021/03/10 11:38:34;;;;;;;22.13;20.60;;;13.40;99.90;;;;;;5062227;28;20454;-73
2021/03/10 11:41:01;;;;;;;23.37;21.10;;;13.50;99.90;;;;;;5062148;28;20467;-73
2021/03/10 11:43:28;;;;;;;21.87;20.37;;;13.50;99.90;;;;;;5061947;28;20455;-73
2021/03/10 11:45:55;;;;;;;21.77;20.37;;;13.60;99.90;;;;;;5059614;28;20509;-73
2021/03/10 11:48:21;;;;;;;21.67;20.23;;;14.00;99.90;;;;;;5066387;28;20466;-74
2021/03/10 11:50:48;;;;;;;22.83;21.20;;;13.80;99.90;;;;;;5060497;28;20780;-73
2021/03/10 11:53:15;;;;;;;22.30;20.80;;;13.30;99.90;;;;;;5070264;28;20464;-75
2021/03/10 11:55:42;;;;;;;21.90;20.40;;;13.10;99.90;;;;;;5070300;28;20468;-72
2021/03/10 11:58:08;;;;;;;21.53;20.13;;;13.40;99.90;;;;;;5062681;28;20473;-74
2021/03/10 12:00:37;;;;;;;23.67;21.87;;;13.40;99.90;;;;;;5066820;28;20520;-74
2021/03/10 12:03:04;;;;;;;22.80;21.20;;;13.00;99.90;;;;;;5068946;28;20851;-73
2021/03/10 12:05:30;;;;;;;21.60;20.20;;;12.30;99.90;;;;;;5063772;28;20463;-75
2021/03/10 12:07:57;;;;;;;24.20;22.40;;;12.50;99.90;;;;;;5056608;28;20487;-73
2021/03/10 12:10:24;;;;;;;23.47;21.77;;;12.90;99.90;;;;;;5060332;28;20451;-73
2021/03/10 12:12:51;;;;;;;23.73;21.63;;;12.60;99.90;;;;;;5063116;28;20667;-72
2021/03/10 12:15:18;;;;;;;23.57;21.70;;;12.50;99.90;;;;;;5049497;28;20495;-72
2021/03/10 12:17:46;;;;;;;23.37;21.47;;;12.70;99.90;;;;;;5060854;28;20954;-71
2021/03/10 12:20:13;;;;;;;24.40;22.53;;;13.00;99.90;;;;;;5056629;28;20506;-71
2021/03/10 12:22:40;;;;;;;24.10;22.50;;;13.50;99.90;;;;;;5061051;28;21054;-71
2021/03/10 12:25:08;;;;;;;23.13;21.43;;;13.80;99.90;;;;;;5058838;28;20455;-73
2021/03/10 12:27:34;;;;;;;23.80;22.20;;;14.00;99.90;;;;;;5056655;28;20567;-73
2021/03/10 12:30:02;;;;;;;25.87;23.93;;;13.90;99.90;;;;;;5052567;28;20471;-72
2021/03/10 12:32:28;;;;;;;24.13;22.40;;;13.60;99.90;;;;;;5055329;28;21001;-73
2021/03/10 12:34:56;;;;;;;23.77;21.90;;;13.70;99.90;;;;;;5049427;28;20609;-72
2021/03/10 12:37:24;;;;;;;23.87;22.10;;;13.60;99.90;;;;;;5050627;28;20454;-73